Time;durP1;ratioP1;P1;durP2;ratioP2;P2;SDS_P1;SDS_P2;PMS_P1;PMS_P2;Temp;Humidity;BMP_temperature;BMP_pressure;BME280_temperature;BME280_humidity;BME280_pressure;Samples;Min_cycle;Max_cycle;Signal;HPM_P1;HPM_P2
2024/01/22 00:00:22;;;;;;;5.03;2.08;;;;;;;2.30;83.40;97922.09;5034416;28;20511;-64
2024/01/22 00:02:49;;;;;;;4.45;2.28;;;;;;;2.32;83.74;97920.06;5043897;28;20424;-64
2024/01/22 00:05:15;;;;;;;7.05;2.65;;;;;;;2.30;83.60;97914.06;5036915;28;20069;-64
2024/01/22 00:07:42;;;;;;;5.13;2.30;;;;;;;2.26;84.02;97907.44;5043115;28;20488;-65
2024/01/22 00:10:09;;;;;;;7.63;2.40;;;;;;;2.26;83.94;97902.09;5049190;28;20120;-65
2024/01/22 00:12:36;;;;;;;5.53;2.25;;;;;;;2.33;84.01;97901.16;5041253;28;20033;-65
2024/01/22 00:15:03;;;;;;;6.45;2.30;;;;;;;2.29;84.46;97888.38;5039381;28;20045;-65
2024/01/22 00:17:30;;;;;;;5.47;2.00;;;;;;;2.23;85.16;97887.25;5033434;28;20040;-66
2024/01/22 00:19:56;;;;;;;5.32;1.83;;;;;;;2.13;86.03;97878.72;5037154;28;20041;-65
2024/01/22 00:22:23;;;;;;;7.70;2.28;;;;;;;2.12;86.52;97877.88;5040464;28;20040;-64
2024/01/22 00:24:49;;;;;;;6.65;2.28;;;;;;;2.20;86.18;97867.09;5040118;28;20492;-64
2024/01/22 00:27:16;;;;;;;4.25;2.03;;;;;;;2.31;86.10;97873.81;5039119;28;20044;-64
2024/01/22 00:29:42;;;;;;;5.00;1.90;;;;;;;2.31;86.19;97854.25;5040211;28;20459;-65
2024/01/22 00:32:09;;;;;;;4.35;1.60;;;;;;;2.27;86.86;97853.81;5033185;28;20574;-65
2024/01/22 00:34:36;;;;;;;4.88;1.77;;;;;;;2.24;87.52;97840.00;5045933;28;20064;-63
2024/01/22 00:37:03;;;;;;;3.88;1.83;;;;;;;2.16;89.39;97841.75;5042991;28;20052;-66
2024/01/22 00:39:29;;;;;;;5.60;2.00;;;;;;;2.17;89.64;97837.22;5043038;28;20037;-65
2024/01/22 00:41:59;;;;;;;4.10;1.80;;;;;;;2.15;90.87;97826.75;5040740;28;20037;-64
2024/01/22 00:44:25;;;;;;;6.15;1.80;;;;;;;2.29;91.79;97826.91;5036049;28;20045;-64
2024/01/22 00:46:52;;;;;;;4.32;1.90;;;;;;;2.32;92.84;97813.97;5053118;28;20037;-65
2024/01/22 00:49:18;;;;;;;5.53;1.35;;;;;;;2.31;93.25;97806.16;5052260;28;20564;-63
2024/01/22 00:51:45;;;;;;;3.33;1.45;;;;;;;2.26;94.12;97806.72;5045770;28;20037;-65
2024/01/22 00:54:12;;;;;;;5.63;2.20;;;;;;;2.30;93.81;97802.66;5033569;28;20497;-64
2024/01/22 00:56:38;;;;;;;5.03;1.65;;;;;;;2.18;93.96;97807.66;5049202;28;20448;-65
2024/01/22 00:59:06;;;;;;;3.83;1.45;;;;;;;2.13;94.93;97815.41;5037908;28;20548;-64
2024/01/22 01:01:32;;;;;;;4.97;2.10;;;;;;;2.19;94.53;97816.50;5035359;28;20049;-64
2024/01/22 01:03:59;;;;;;;3.45;1.75;;;;;;;2.01;94.42;97820.41;5042437;28;20052;-66
2024/01/22 01:06:25;;;;;;;4.25;2.08;;;;;;;1.88;95.19;97818.38;5030751;28;20412;-65
2024/01/22 01:08:52;;;;;;;3.55;1.88;;;;;;;1.83;94.99;97815.44;5039818;28;20090;-64
2024/01/22 01:11:18;;;;;;;4.00;2.13;;;;;;;1.66;95.70;97804.94;5048086;28;20459;-65
2024/01/22 01:13:45;;;;;;;5.38;2.47;;;;;;;1.44;97.13;97804.00;5035721;28;20397;-67
2024/01/22 01:16:11;;;;;;;3.95;2.08;;;;;;;1.28;98.40;97815.66;5051552;28;20164;-65
2024/01/22 01:18:38;;;;;;;8.18;2.10;;;;;;;1.13;98.89;97803.13;5046616;28;20040;-64
2024/01/22 01:21:05;;;;;;;4.40;2.38;;;;;;;1.02;100.00;97798.22;5038354;28;21091;-66
2024/01/22 01:23:33;;;;;;;4.03;2.08;;;;;;;0.93;100.00;97792.13;5038287;28;20516;-65
2024/01/22 01:26:00;;;;;;;4.60;2.08;;;;;;;0.77;100.00;97788.59;5043732;28;20047;-65
2024/01/22 01:28:26;;;;;;;4.38;2.10;;;;;;;0.72;100.00;97796.28;5033162;28;20046;-64
2024/01/22 01:30:53;;;;;;;5.22;2.38;;;;;;;0.79;100.00;97793.75;5043748;28;20098;-64
2024/01/22 01:33:20;;;;;;;4.78;2.40;;;;;;;0.81;100.00;97789.03;5036528;28;20049;-64
2024/01/22 01:35:47;;;;;;;5.57;2.08;;;;;;;0.85;100.00;97781.53;5052776;28;20044;-63
2024/01/22 01:38:13;;;;;;;5.63;2.50;;;;;;;0.93;100.00;97789.47;5039527;28;20501;-64
2024/01/22 01:40:41;;;;;;;4.22;2.00;;;;;;;0.96;100.00;97783.75;5039524;28;20045;-65
2024/01/22 01:43:07;;;;;;;5.15;2.38;;;;;;;0.95;100.00;97787.44;5038227;28;20160;-65
2024/01/22 01:45:34;;;;;;;6.60;2.47;;;;;;;0.93;100.00;97799.28;5054384;28;20053;-65
2024/01/22 01:48:01;;;;;;;4.80;2.10;;;;;;;0.91;100.00;97788.81;5042398;28;20045;-65
2024/01/22 01:50:28;;;;;;;5.10;2.00;;;;;;;0.85;100.00;97795.69;5036793;28;20075;-65
2024/01/22 01:52:55;;;;;;;5.00;2.55;;;;;;;0.83;100.00;97792.38;5049406;28;20039;-65
2024/01/22 01:55:23;;;;;;;5.20;2.33;;;;;;;0.75;100.00;97790.63;5037974;28;21282;-66
2024/01/22 01:57:50;;;;;;;5.45;2.40;;;;;;;0.69;100.00;97787.81;5043068;28;20037;-64
2024/01/22 02:00:26;;;;;;;5.05;2.20;;;;;;;0.73;100.00;97787.28;5040708;28;20083;-65
2024/01/22 02:02:53;;;;;;;5.90;2.20;;;;;;;0.65;100.00;97784.69;5046168;28;20044;-65
2024/01/22 02:05:19;;;;;;;6.50;2.75;;;;;;;0.57;100.00;97782.06;5040198;28;20124;-63
2024/01/22 02:07:47;;;;;;;5.00;2.58;;;;;;;0.52;100.00;97788.75;5033055;28;20505;-66
2024/01/22 02:10:13;;;;;;;4.95;2.65;;;;;;;0.60;100.00;97789.72;5045207;28;20068;-65
2024/01/22 02:12:40;;;;;;;4.57;2.25;;;;;;;0.63;100.00;97790.19;5036498;28;20036;-65
2024/01/22 02:15:07;;;;;;;5.00;2.42;;;;;;;0.52;100.00;97783.44;5045807;28;20056;-65
2024/01/22 02:17:34;;;;;;;4.25;2.05;;;;;;;0.56;100.00;97785.75;5039649;28;20123;-66
2024/01/22 02:20:00;;;;;;;6.10;2.85;;;;;;;0.66;100.00;97790.84;5033721;28;20084;-65
2024/01/22 02:22:27;;;;;;;4.68;2.55;;;;;;;0.48;100.00;97791.97;5030693;28;20052;-65
2024/01/22 02:24:53;;;;;;;4.47;2.08;;;;;;;0.29;100.00;97788.72;5030223;28;20045;-64
2024/01/22 02:27:20;;;;;;;3.95;1.80;;;;;;;0.14;100.00;97777.19;5030968;28;20545;-64
2024/01/22 02:29:47;;;;;;;6.65;2.22;;;;;;;0.02;100.00;97785.56;5031469;28;20393;-65
2024/01/22 02:32:14;;;;;;;6.20;2.13;;;;;;;-0.21;100.00;97785.47;5043741;28;20042;-64
2024/01/22 02:34:40;;;;;;;5.70;2.10;;;;;;;-0.41;100.00;97783.22;5049570;28;20119;-64
2024/01/22 02:37:07;;;;;;;5.18;2.20;;;;;;;-0.55;100.00;97774.94;5047457;28;20061;-63
2024/01/22 02:39:35;;;;;;;4.85;2.30;;;;;;;-0.71;100.00;97770.50;5050914;28;20047;-65
2024/01/22 02:42:02;;;;;;;5.50;2.30;;;;;;;-0.84;100.00;97765.72;5053937;28;20037;-64
2024/01/22 02:44:28;;;;;;;4.90;2.22;;;;;;;-0.98;100.00;97763.72;5044508;28;20332;-65
2024/01/22 02:46:55;;;;;;;7.70;2.63;;;;;;;-1.07;100.00;97755.75;5051027;28;20068;-65
2024/01/22 02:49:21;;;;;;;4.63;2.42;;;;;;;-1.11;100.00;97754.44;5043869;28;20064;-65
2024/01/22 02:51:48;;;;;;;6.18;2.83;;;;;;;-1.08;100.00;97754.13;5036391;28;20041;-64
2024/01/22 02:54:15;;;;;;;7.43;3.42;;;;;;;-1.10;100.00;97750.78;5039508;28;20048;-66
2024/01/22 02:56:41;;;;;;;5.05;2.13;;;;;;;-1.14;100.00;97743.31;5036574;28;20105;-63
2024/01/22 02:59:08;;;;;;;5.43;2.78;;;;;;;-1.20;100.00;97752.78;5043858;28;20056;-64
2024/01/22 03:01:35;;;;;;;5.88;2.38;;;;;;;-1.15;100.00;97746.97;5049660;28;20491;-65
2024/01/22 03:04:01;;;;;;;5.63;2.10;;;;;;;-1.08;100.00;97747.94;5036381;28;20041;-65
2024/01/22 03:06:28;;;;;;;4.15;2.20;;;;;;;-1.08;100.00;97742.63;5042212;28;20488;-64
2024/01/22 03:08:55;;;;;;;5.75;2.28;;;;;;;-1.14;100.00;97727.38;5042186;28;20139;-65
2024/01/22 03:11:22;;;;;;;5.88;2.65;;;;;;;-1.12;100.00;97723.56;5036467;28;20381;-66
2024/01/22 03:13:49;;;;;;;6.22;2.30;;;;;;;-0.89;100.00;97714.06;5045245;28;20045;-65
2024/01/22 03:16:15;;;;;;;5.30;2.15;;;;;;;-0.61;100.00;97724.25;5038590;28;20536;-66
2024/01/22 03:18:42;;;;;;;4.93;2.25;;;;;;;-0.50;100.00;97718.56;5047215;28;20040;-64
2024/01/22 03:21:09;;;;;;;8.10;2.55;;;;;;;-0.44;100.00;97715.22;5046287;28;20057;-64
2024/01/22 03:23:35;;;;;;;5.57;2.33;;;;;;;-0.36;100.00;97719.69;5050884;28;20053;-65
2024/01/22 03:26:02;;;;;;;5.03;2.00;;;;;;;-0.28;100.00;97701.03;5045670;28;20116;-65
2024/01/22 03:28:29;;;;;;;4.88;2.35;;;;;;;-0.20;100.00;97709.94;5047394;28;20106;-66
2024/01/22 03:30:56;;;;;;;4.20;1.90;;;;;;;-0.18;100.00;97702.63;5051358;28;20037;-65
2024/01/22 03:33:22;;;;;;;5.82;2.47;;;;;;;-0.12;100.00;97699.25;5051821;28;20041;-65
2024/01/22 03:35:49;;;;;;;3.53;2.00;;;;;;;-0.14;100.00;97701.28;5046228;28;20071;-64
2024/01/22 03:38:16;;;;;;;4.50;2.00;;;;;;;-0.19;100.00;97699.13;5044261;28;20041;-66
2024/01/22 03:40:42;;;;;;;5.78;2.50;;;;;;;-0.19;100.00;97701.00;5046503;28;20040;-64
2024/01/22 03:43:09;;;;;;;5.18;2.20;;;;;;;-0.21;100.00;97701.16;5044167;28;20045;-64
2024/01/22 03:45:35;;;;;;;4.22;1.83;;;;;;;-0.22;100.00;97686.16;5040047;28;20576;-64
2024/01/22 03:48:02;;;;;;;4.72;2.58;;;;;;;-0.15;100.00;97691.63;5041259;28;20055;-65
2024/01/22 03:50:29;;;;;;;4.28;2.03;;;;;;;-0.16;100.00;97700.63;5042059;28;20043;-63
2024/01/22 03:52:56;;;;;;;6.18;2.42;;;;;;;-0.04;100.00;97683.25;5048455;28;20266;-65
2024/01/22 03:55:22;;;;;;;4.47;2.38;;;;;;;0.03;100.00;97683.38;5041292;28;20551;-64
2024/01/22 03:57:49;;;;;;;5.00;2.28;;;;;;;0.14;100.00;97683.97;5048606;28;20073;-67
2024/01/22 04:00:15;;;;;;;7.07;3.45;;;;;;;0.29;100.00;97678.72;5044966;28;20037;-65
2024/01/22 04:02:42;;;;;;;6.15;3.10;;;;;;;0.47;100.00;97684.53;5035621;28;20504;-65
2024/01/22 04:05:10;;;;;;;7.03;3.20;;;;;;;0.63;100.00;97696.09;5040375;28;20413;-64
2024/01/22 04:07:37;;;;;;;6.35;3.05;;;;;;;0.78;100.00;97690.78;5053488;28;20045;-66
2024/01/22 04:10:03;;;;;;;4.93;2.35;;;;;;;0.89;100.00;97671.66;5039672;28;20401;-65
2024/01/22 04:12:30;;;;;;;4.80;2.60;;;;;;;0.92;100.00;97678.47;5036304;28;20393;-65
2024/01/22 04:14:56;;;;;;;7.63;3.47;;;;;;;0.95;100.00;97677.31;5032518;28;20470;-65
2024/01/22 04:17:23;;;;;;;6.88;3.05;;;;;;;1.00;100.00;97667.72;5039274;28;20052;-65
2024/01/22 04:19:49;;;;;;;7.15;3.10;;;;;;;1.00;100.00;97659.72;5050541;28;20036;-65
2024/01/22 04:22:16;;;;;;;6.00;3.10;;;;;;;0.98;100.00;97663.59;5052580;28;20115;-66
2024/01/22 04:24:43;;;;;;;6.63;3.10;;;;;;;0.97;100.00;97660.09;5043885;28;20051;-65
2024/01/22 04:27:09;;;;;;;8.60;3.38;;;;;;;0.95;100.00;97662.13;5045231;28;20050;-64
2024/01/22 04:29:36;;;;;;;5.35;3.03;;;;;;;0.95;100.00;97659.44;5028795;28;21076;-65
2024/01/22 04:32:03;;;;;;;7.18;3.60;;;;;;;1.04;100.00;97660.19;5043470;28;20323;-65
2024/01/22 04:34:29;;;;;;;7.03;3.72;;;;;;;1.19;100.00;97659.38;5034445;28;20586;-64
2024/01/22 04:36:56;;;;;;;7.45;3.15;;;;;;;1.26;100.00;97661.09;5034819;28;20064;-63
2024/01/22 04:39:24;;;;;;;8.77;4.13;;;;;;;1.27;100.00;97640.59;5043654;28;20072;-66
2024/01/22 04:41:53;;;;;;;6.50;3.75;;;;;;;1.25;100.00;97639.97;5039008;28;20045;-65
2024/01/22 04:44:19;;;;;;;6.07;3.30;;;;;;;1.25;100.00;97640.78;5042544;28;20041;-65
2024/01/22 04:46:46;;;;;;;6.35;3.58;;;;;;;1.29;100.00;97647.41;5051091;28;20044;-65
2024/01/22 04:49:12;;;;;;;6.80;3.97;;;;;;;1.33;100.00;97644.38;5040896;28;20045;-65
2024/01/22 04:51:45;;;;;;;6.43;3.45;;;;;;;1.29;100.00;97639.38;5044407;28;20045;-66
2024/01/22 04:54:11;;;;;;;8.38;4.07;;;;;;;1.30;100.00;97633.03;5035754;28;20049;-65
2024/01/22 04:56:44;;;;;;;10.90;4.57;;;;;;;1.34;100.00;97633.50;5040317;28;20042;-65
2024/01/22 04:59:11;;;;;;;9.93;4.40;;;;;;;1.41;100.00;97636.25;5047270;28;20471;-64
2024/01/22 05:01:37;;;;;;;8.80;4.53;;;;;;;1.47;100.00;97634.69;5043012;28;20045;-65
2024/01/22 05:04:04;;;;;;;8.20;4.15;;;;;;;1.50;100.00;97626.28;5043428;28;20095;-65
2024/01/22 05:06:31;;;;;;;9.88;4.25;;;;;;;1.49;100.00;97627.31;5040643;28;20477;-66
2024/01/22 05:08:58;;;;;;;7.07;3.83;;;;;;;1.44;100.00;97614.53;5045787;28;20459;-65
2024/01/22 05:11:24;;;;;;;8.43;4.13;;;;;;;1.46;100.00;97609.84;5036868;28;20130;-66
2024/01/22 05:13:52;;;;;;;7.43;3.75;;;;;;;1.45;100.00;97620.69;5043510;28;20033;-64
2024/01/22 05:16:21;;;;;;;8.32;3.88;;;;;;;1.41;100.00;97614.91;5043306;28;20151;-64
2024/01/22 05:18:49;;;;;;;7.60;4.15;;;;;;;1.36;100.00;97610.13;5037850;28;20045;-66
2024/01/22 05:21:16;;;;;;;9.15;4.35;;;;;;;1.34;100.00;97606.84;5051934;28;20552;-65
2024/01/22 05:23:42;;;;;;;8.27;4.20;;;;;;;1.33;100.00;97599.84;5046502;28;20032;-63
2024/01/22 05:26:09;;;;;;;7.47;4.30;;;;;;;1.34;100.00;97603.31;5049526;28;20040;-62
2024/01/22 05:28:36;;;;;;;10.68;5.03;;;;;;;1.28;100.00;97591.56;5040229;28;20033;-60
2024/01/22 05:31:04;;;;;;;8.75;4.40;;;;;;;1.28;100.00;97587.06;5035210;28;20700;-62
2024/01/22 05:33:30;;;;;;;9.85;4.90;;;;;;;1.27;100.00;97585.41;5046548;28;20498;-62
2024/01/22 05:35:57;;;;;;;6.85;3.85;;;;;;;1.29;100.00;97574.56;5041996;28;20491;-63
2024/01/22 05:38:24;;;;;;;7.78;4.28;;;;;;;1.35;100.00;97579.13;5036319;28;20052;-60
2024/01/22 05:40:51;;;;;;;6.40;3.30;;;;;;;1.41;100.00;97564.22;5039719;28;20036;-60
2024/01/22 05:43:18;;;;;;;7.20;3.92;;;;;;;1.50;100.00;97565.75;5039666;28;20535;-61
2024/01/22 05:45:44;;;;;;;7.28;3.67;;;;;;;1.59;100.00;97555.78;5037633;28;20041;-61
2024/01/22 05:48:11;;;;;;;8.00;3.97;;;;;;;1.67;100.00;97560.16;5039997;28;20041;-62
2024/01/22 05:50:38;;;;;;;7.07;4.22;;;;;;;1.78;100.00;97553.50;5053809;28;20241;-61
2024/01/22 05:53:05;;;;;;;7.85;3.78;;;;;;;1.79;100.00;97563.16;5038814;28;20467;-62
2024/01/22 05:55:31;;;;;;;7.82;3.78;;;;;;;1.77;100.00;97560.66;5037282;28;20033;-62
2024/01/22 05:57:58;;;;;;;9.63;3.97;;;;;;;1.73;100.00;97551.38;5041076;28;20116;-60
2024/01/22 06:00:25;;;;;;;8.70;3.95;;;;;;;1.73;100.00;97547.91;5040350;28;20069;-60
2024/01/22 06:02:51;;;;;;;8.93;4.55;;;;;;;1.81;100.00;97548.59;5040819;28;20044;-61
2024/01/22 06:05:18;;;;;;;6.63;3.72;;;;;;;1.78;100.00;97541.00;5043530;28;20049;-61
2024/01/22 06:07:45;;;;;;;7.05;4.07;;;;;;;1.79;100.00;97547.97;5042785;28;20093;-63
2024/01/22 06:10:12;;;;;;;7.20;3.63;;;;;;;1.78;100.00;97535.66;5033446;28;21189;-62
2024/01/22 06:12:38;;;;;;;9.90;4.10;;;;;;;1.79;100.00;97536.47;5039687;28;20400;-61
2024/01/22 06:15:06;;;;;;;6.78;3.95;;;;;;;1.80;100.00;97522.09;5041473;28;20040;-62
2024/01/22 06:17:33;;;;;;;10.55;4.18;;;;;;;1.76;100.00;97532.34;5045788;28;20145;-60
2024/01/22 06:20:00;;;;;;;6.63;3.50;;;;;;;1.76;100.00;97529.66;5042863;28;20527;-62
2024/01/22 06:22:28;;;;;;;9.00;4.25;;;;;;;1.76;100.00;97523.47;5038238;28;20159;-63
2024/01/22 06:24:55;;;;;;;7.28;4.20;;;;;;;1.79;100.00;97523.09;5043566;28;20048;-62
2024/01/22 06:27:21;;;;;;;10.68;4.68;;;;;;;1.86;100.00;97518.66;5046604;28;20428;-61
2024/01/22 06:29:48;;;;;;;8.20;4.03;;;;;;;1.97;100.00;97511.97;5039033;28;20200;-63
2024/01/22 06:32:17;;;;;;;8.07;4.15;;;;;;;1.99;100.00;97509.13;5047358;28;20073;-62
2024/01/22 06:34:46;;;;;;;6.05;3.42;;;;;;;2.07;100.00;97511.66;5042281;28;20045;-63
2024/01/22 06:37:13;;;;;;;9.25;4.47;;;;;;;2.05;100.00;97503.81;5037021;28;20045;-61
2024/01/22 06:39:40;;;;;;;7.97;4.03;;;;;;;2.04;100.00;97507.50;5039399;28;20141;-62
2024/01/22 06:42:07;;;;;;;6.65;3.30;;;;;;;2.06;100.00;97493.94;5038375;28;20063;-62
2024/01/22 06:44:34;;;;;;;8.70;4.05;;;;;;;2.08;100.00;97487.41;5032389;28;20045;-63
2024/01/22 06:47:00;;;;;;;6.30;3.53;;;;;;;2.19;100.00;97491.41;5039228;28;20052;-62
2024/01/22 06:49:27;;;;;;;9.88;4.00;;;;;;;2.39;100.00;97490.69;5048258;28;20048;-62
2024/01/22 06:51:54;;;;;;;6.18;3.30;;;;;;;2.57;100.00;97481.31;5034428;28;20063;-61
2024/01/22 06:54:20;;;;;;;7.28;3.55;;;;;;;2.69;100.00;97479.72;5040422;28;20493;-62
2024/01/22 06:56:49;;;;;;;6.70;3.58;;;;;;;2.75;100.00;97478.13;5041726;28;20502;-61
2024/01/22 06:59:16;;;;;;;4.75;2.65;;;;;;;2.76;100.00;97484.31;5036460;28;20048;-63
2024/01/22 07:01:42;;;;;;;6.70;2.90;;;;;;;2.78;100.00;97482.25;5036839;28;20052;-62
2024/01/22 07:04:09;;;;;;;9.32;3.30;;;;;;;2.85;100.00;97497.28;5042373;28;20044;-61
2024/01/22 07:06:36;;;;;;;6.32;2.58;;;;;;;2.88;100.00;97498.75;5033692;28;20090;-62
2024/01/22 07:09:03;;;;;;;4.85;2.70;;;;;;;2.88;100.00;97492.56;5038712;28;20116;-61
2024/01/22 07:11:30;;;;;;;4.60;1.17;;;;;;;3.23;100.00;97501.34;5040155;28;20522;-62
2024/01/22 07:13:56;;;;;;;1.48;0.80;;;;;;;4.08;100.00;97499.19;5035447;28;20052;-63
2024/01/22 07:16:23;;;;;;;1.65;0.77;;;;;;;4.68;98.07;97494.75;5048567;28;20140;-62
2024/01/22 07:18:50;;;;;;;2.35;0.93;;;;;;;5.21;94.16;97482.97;5050395;28;20038;-61
2024/01/22 07:21:17;;;;;;;2.30;0.90;;;;;;;5.63;91.37;97484.38;5040188;28;20045;-61
2024/01/22 07:23:44;;;;;;;1.90;0.52;;;;;;;5.92;89.13;97492.88;5040881;28;20467;-61
2024/01/22 07:26:11;;;;;;;2.67;0.70;;;;;;;6.15;87.15;97480.72;5030472;28;20041;-62
2024/01/22 07:28:37;;;;;;;1.80;0.63;;;;;;;6.40;85.81;97487.09;5038640;28;20136;-62
2024/01/22 07:31:04;;;;;;;2.72;0.75;;;;;;;6.53;84.25;97481.59;5039689;28;20344;-62
2024/01/22 07:33:31;;;;;;;1.70;0.70;;;;;;;6.80;81.83;97467.03;5034589;28;20056;-62
2024/01/22 07:35:58;;;;;;;2.38;0.80;;;;;;;6.89;81.00;97466.50;5042580;28;20428;-62
2024/01/22 07:38:24;;;;;;;1.98;0.52;;;;;;;7.06;79.66;97460.50;5045696;28;20045;-61
2024/01/22 07:40:51;;;;;;;2.80;0.60;;;;;;;7.14;79.28;97462.88;5041435;28;20048;-62
2024/01/22 07:43:20;;;;;;;2.00;0.57;;;;;;;7.06;79.50;97460.50;5034897;28;20069;-62
2024/01/22 07:45:47;;;;;;;1.80;0.55;;;;;;;7.12;80.26;97456.88;5047051;28;20037;-64
2024/01/22 07:48:13;;;;;;;1.63;0.95;;;;;;;7.21;79.61;97460.09;5043872;28;20120;-62
2024/01/22 07:50:41;;;;;;;1.33;0.70;;;;;;;7.11;79.98;97452.56;5039636;28;20037;-61
2024/01/22 07:53:07;;;;;;;2.38;0.47;;;;;;;7.14;80.41;97448.59;5039777;28;20047;-60
2024/01/22 07:55:34;;;;;;;2.40;0.77;;;;;;;7.26;81.18;97433.28;5042980;28;20049;-61
2024/01/22 07:58:01;;;;;;;5.53;2.05;;;;;;;7.49;80.89;97422.81;5035237;28;20045;-62
2024/01/22 08:00:28;;;;;;;2.55;0.93;;;;;;;7.64;80.64;97419.69;5044390;28;20053;-61
2024/01/22 08:02:54;;;;;;;2.40;1.15;;;;;;;7.52;80.93;97408.91;5046876;28;20040;-60
2024/01/22 08:05:21;;;;;;;2.58;1.27;;;;;;;7.61;80.53;97426.38;5039488;28;20049;-61
2024/01/22 08:07:47;;;;;;;1.95;0.70;;;;;;;7.65;80.80;97432.94;5037526;28;20150;-61
2024/01/22 08:10:14;;;;;;;1.10;0.70;;;;;;;7.52;82.73;97433.94;5034943;28;20332;-62
2024/01/22 08:12:41;;;;;;;1.75;0.68;;;;;;;7.50;83.06;97427.16;5045194;28;20655;-62
2024/01/22 08:15:14;;;;;;;1.67;0.73;;;;;;;7.60;82.86;97435.50;5039394;28;20032;-59
2024/01/22 08:17:42;;;;;;;2.40;0.77;;;;;;;7.57;84.43;97425.19;5026410;28;20053;-61
2024/01/22 08:20:08;;;;;;;1.27;0.73;;;;;;;7.56;85.98;97447.81;5049453;28;20048;-61
2024/01/22 08:22:35;;;;;;;2.83;0.65;;;;;;;7.52;86.92;97446.63;5041496;28;20037;-62
2024/01/22 08:25:03;;;;;;;1.20;0.52;;;;;;;7.48;87.64;97445.44;5048491;28;20064;-62
2024/01/22 08:27:30;;;;;;;2.50;0.95;;;;;;;7.46;88.40;97445.66;5039862;28;20050;-62
2024/01/22 08:29:56;;;;;;;2.88;0.70;;;;;;;7.50;89.49;97440.63;5038893;28;20048;-60
2024/01/22 08:32:23;;;;;;;2.40;0.60;;;;;;;7.56;89.95;97442.41;5055420;28;20345;-62
2024/01/22 08:34:49;;;;;;;1.08;0.55;;;;;;;7.74;91.76;97448.78;5041149;28;20033;-61
2024/01/22 08:37:16;;;;;;;1.27;0.55;;;;;;;7.87;92.94;97436.94;5032130;28;20049;-63
2024/01/22 08:39:42;;;;;;;2.10;0.70;;;;;;;7.92;92.94;97455.94;5052542;28;20040;-62
2024/01/22 08:42:09;;;;;;;3.42;0.60;;;;;;;8.00;94.61;97433.22;5037980;28;20051;-62
2024/01/22 08:44:36;;;;;;;2.38;0.68;;;;;;;8.02;95.89;97442.72;5042826;28;20042;-62
2024/01/22 08:47:03;;;;;;;1.65;0.60;;;;;;;8.13;95.73;97434.84;5036848;28;20091;-62
2024/01/22 08:49:29;;;;;;;1.02;0.40;;;;;;;8.13;96.28;97430.28;5041409;28;20036;-61
2024/01/22 08:51:56;;;;;;;2.78;0.73;;;;;;;8.17;96.20;97426.06;5038981;28;20052;-62
2024/01/22 08:54:23;;;;;;;4.07;0.70;;;;;;;8.28;96.15;97442.47;5046556;28;20045;-61
2024/01/22 08:56:49;;;;;;;3.40;0.77;;;;;;;8.32;95.66;97425.59;5025018;28;20030;-61
2024/01/22 08:59:16;;;;;;;3.67;0.40;;;;;;;8.19;96.52;97442.00;5037650;28;20531;-63
2024/01/22 09:01:43;;;;;;;1.48;0.60;;;;;;;8.31;95.38;97439.31;5040539;28;20076;-61
2024/01/22 09:04:09;;;;;;;1.63;0.60;;;;;;;8.29;95.10;97444.13;5043255;28;20090;-62
2024/01/22 09:06:36;;;;;;;1.45;0.73;;;;;;;8.28;95.12;97437.06;5046637;28;20045;-63
2024/01/22 09:09:05;;;;;;;1.13;0.40;;;;;;;8.33;95.01;97429.09;5044164;28;20059;-62
2024/01/22 09:11:31;;;;;;;2.80;0.50;;;;;;;8.35;94.60;97432.38;5038109;28;20271;-63
2024/01/22 09:13:58;;;;;;;0.85;0.40;;;;;;;8.24;95.54;97423.25;5036049;28;20037;-63
2024/01/22 09:16:26;;;;;;;2.20;0.50;;;;;;;8.31;96.82;97436.59;5044082;28;20045;-63
2024/01/22 09:18:53;;;;;;;1.63;0.60;;;;;;;8.19;98.20;97413.16;5047017;28;20041;-63
2024/01/22 09:21:19;;;;;;;2.20;0.70;;;;;;;8.19;98.35;97412.34;5036233;28;20072;-65
2024/01/22 09:23:46;;;;;;;1.23;0.70;;;;;;;8.25;98.49;97422.19;5038708;28;20543;-66
2024/01/22 09:26:13;;;;;;;1.73;0.50;;;;;;;8.34;98.74;97425.34;5035694;28;20103;-64
2024/01/22 09:28:39;;;;;;;1.30;0.50;;;;;;;8.24;100.00;97406.22;5043869;28;20033;-66
2024/01/22 09:31:06;;;;;;;1.42;0.50;;;;;;;8.17;100.00;97419.84;5039948;28;20044;-65
2024/01/22 09:33:33;;;;;;;2.75;1.20;;;;;;;8.11;100.00;97416.19;5048652;28;20033;-65
2024/01/22 09:36:03;;;;;;;8.43;3.40;;;;;;;8.03;100.00;97414.69;5034459;28;20126;-65
2024/01/22 09:38:30;;;;;;;4.63;2.10;;;;;;;8.06;100.00;97406.13;5033475;28;20523;-65
2024/01/22 09:40:57;;;;;;;1.13;0.47;;;;;;;8.09;100.00;97415.63;5034296;28;20048;-64
2024/01/22 09:43:24;;;;;;;1.20;0.80;;;;;;;8.12;100.00;97415.16;5045557;28;20103;-67
2024/01/22 09:45:50;;;;;;;1.48;0.80;;;;;;;8.18;100.00;97400.72;5046009;28;20105;-65
2024/01/22 09:48:18;;;;;;;1.50;0.52;;;;;;;8.24;100.00;97390.03;5041835;28;20045;-66
2024/01/22 09:50:50;;;;;;;1.55;0.65;;;;;;;8.31;100.00;97388.06;5034962;28;20280;-64
2024/01/22 09:53:17;;;;;;;;;;;;;;;8.32;100.00;97393.22;5037561;28;20055;-64
2024/01/22 09:55:44;;;;;;;1.67;0.60;;;;;;;8.34;100.00;97390.28;5032065;28;19928;-65
2024/01/22 09:58:18;;;;;;;2.33;0.95;;;;;;;8.37;100.00;97379.00;5034822;28;20064;-64
2024/01/22 10:00:46;;;;;;;2.03;0.75;;;;;;;8.42;100.00;97381.81;5038610;28;20129;-66
2024/01/22 10:03:14;;;;;;;2.17;0.80;;;;;;;8.55;100.00;97379.94;5034087;28;20574;-65
2024/01/22 10:05:41;;;;;;;2.72;0.60;;;;;;;8.59;100.00;97373.81;5035755;28;20434;-65
2024/01/22 10:08:08;;;;;;;1.02;0.32;;;;;;;8.56;100.00;97362.69;5048118;28;20072;-66
2024/01/22 10:10:35;;;;;;;3.25;0.77;;;;;;;8.49;100.00;97367.38;5048741;28;20401;-67
2024/01/22 10:13:04;;;;;;;3.05;0.70;;;;;;;8.56;100.00;97352.69;5035213;28;20151;-64
2024/01/22 10:15:32;;;;;;;1.00;0.38;;;;;;;8.56;100.00;97354.59;5047060;28;20048;-65
2024/01/22 10:18:15;;;;;;;2.38;0.70;;;;;;;8.57;100.00;97348.13;5035259;28;20324;-64
2024/01/22 10:20:46;;;;;;;2.22;0.70;;;;;;;8.64;100.00;97353.38;5046664;28;20488;-65
2024/01/22 10:23:16;;;;;;;1.88;0.55;;;;;;;8.63;100.00;97349.88;5040988;28;20051;-65
2024/01/22 10:25:43;;;;;;;5.18;2.50;;;;;;;8.64;100.00;97345.28;5037006;28;20056;-66
2024/01/22 10:28:18;;;;;;;4.70;1.67;;;;;;;8.77;100.00;97341.50;5036946;28;20036;-65
2024/01/22 10:31:00;;;;;;;2.22;0.80;;;;;;;8.87;100.00;97330.88;5025368;28;20128;-65
2024/01/22 10:33:26;;;;;;;2.20;0.60;;;;;;;8.91;100.00;97309.59;5032641;28;20528;-66
2024/01/22 10:35:53;;;;;;;0.73;0.40;;;;;;;9.05;100.00;97320.94;5047773;28;20082;-67
2024/01/22 10:38:20;;;;;;;1.70;0.63;;;;;;;9.02;100.00;97316.84;5040895;28;20127;-67
2024/01/22 10:40:47;;;;;;;4.20;1.90;;;;;;;9.20;100.00;97320.38;5032934;28;20588;-65
2024/01/22 10:43:21;;;;;;;6.55;2.63;;;;;;;9.31;100.00;97310.56;5041851;28;20064;-64
2024/01/22 10:45:51;;;;;;;7.32;2.78;;;;;;;9.53;100.00;97304.41;5045358;28;20048;-67
2024/01/22 10:48:20;;;;;;;4.40;1.90;;;;;;;9.79;100.00;97307.50;5049409;28;21049;-65
2024/01/22 10:51:04;;;;;;;4.60;1.70;;;;;;;9.85;100.00;97282.19;5045501;28;20040;-65
2024/01/22 10:53:32;;;;;;;1.75;0.60;;;;;;;9.80;100.00;97298.34;5044614;28;20041;-67
2024/01/22 10:56:10;;;;;;;1.95;0.73;;;;;;;9.82;100.00;97277.25;5037154;28;20064;-66
2024/01/22 10:58:42;;;;;;;0.40;0.32;;;;;;;9.94;100.00;97290.66;5041668;28;20416;-65
2024/01/22 11:01:18;;;;;;;6.88;3.22;;;;;;;9.84;100.00;97294.06;5042606;28;20048;-66
2024/01/22 11:03:52;;;;;;;0.60;0.40;;;;;;;9.88;100.00;97270.88;5046999;28;20572;-66
2024/01/22 11:06:23;;;;;;;3.92;1.25;;;;;;;9.67;100.00;97280.56;5050245;28;20041;-66
2024/01/22 11:08:53;;;;;;;2.75;1.15;;;;;;;9.73;100.00;97260.66;5035219;28;20042;-65
2024/01/22 11:11:21;;;;;;;4.45;1.80;;;;;;;9.89;100.00;97250.84;5047846;28;20146;-66
2024/01/22 11:13:58;;;;;;;1.55;0.80;;;;;;;9.87;100.00;97264.63;5037630;28;20049;-65
2024/01/22 11:16:26;;;;;;;2.15;0.60;;;;;;;9.88;100.00;97260.06;5051615;28;20131;-65
2024/01/22 11:18:55;;;;;;;3.13;1.35;;;;;;;9.81;100.00;97248.59;5054762;28;20052;-66
2024/01/22 11:21:22;;;;;;;1.23;0.43;;;;;;;9.87;100.00;97258.38;5036434;28;20063;-65
2024/01/22 11:24:12;;;;;;;1.95;0.80;;;;;;;9.89;100.00;97256.28;5043591;28;20049;-66
2024/01/22 11:26:52;;;;;;;6.85;1.52;;;;;;;9.83;100.00;97266.19;5048173;28;20116;-65
2024/01/22 11:29:24;;;;;;;0.82;0.50;;;;;;;9.78;100.00;97266.13;5045983;28;20053;-65
2024/01/22 11:31:51;;;;;;;3.40;0.65;;;;;;;9.61;100.00;97264.28;5038431;28;20136;-65
2024/01/22 11:34:40;;;;;;;2.00;0.50;;;;;;;9.16;100.00;97255.22;5047283;28;20258;-66